createdAt,value
2022-09-20T00:02:02.064Z,11.97
2022-09-20T00:04:29.982Z,11.91
2022-09-20T00:06:57.727Z,11.80
2022-09-20T00:09:25.487Z,11.79
2022-09-20T00:11:54.760Z,11.77
2022-09-20T00:14:22.506Z,11.83
2022-09-20T00:16:50.377Z,11.94
2022-09-20T00:19:19.819Z,11.65
2022-09-20T00:21:47.524Z,11.73
2022-09-20T00:24:15.772Z,11.81
2022-09-20T00:26:43.485Z,11.73
2022-09-20T00:29:13.755Z,11.86
2022-09-20T00:31:42.811Z,11.79
2022-09-20T00:34:29.576Z,11.92
2022-09-20T00:36:57.283Z,11.94
2022-09-20T00:39:25.166Z,11.93
2022-09-20T00:41:52.942Z,11.95
2022-09-20T00:44:49.097Z,11.99
2022-09-20T00:47:23.344Z,12.01
2022-09-20T00:49:53.414Z,12.12
2022-09-20T00:52:21.572Z,12.16
2022-09-20T00:54:49.902Z,12.05
2022-09-20T00:57:17.994Z,12.24
2022-09-20T00:59:48.812Z,12.21
2022-09-20T01:02:18.623Z,12.18
2022-09-20T01:04:47.443Z,12.14
2022-09-20T01:07:17.761Z,12.06
2022-09-20T01:09:45.552Z,12.04
2022-09-20T01:12:15.968Z,12.04
2022-09-20T01:14:44.641Z,11.95
2022-09-20T01:17:14.223Z,11.95
2022-09-20T01:19:50.248Z,11.87
2022-09-20T01:22:23.693Z,11.80
2022-09-20T01:24:56.421Z,11.82
2022-09-20T01:27:37.628Z,11.86
2022-09-20T01:30:08.071Z,11.80
2022-09-20T01:32:45.715Z,11.77
2022-09-20T01:35:14.285Z,11.80
2022-09-20T01:37:51.093Z,11.83
2022-09-20T01:40:24.727Z,11.85
2022-09-20T01:43:01.732Z,11.74
2022-09-20T01:45:30.796Z,11.86
2022-09-20T01:48:09.254Z,11.81
2022-09-20T01:50:44.174Z,11.81
2022-09-20T01:53:41.431Z,11.79
2022-09-20T01:56:41.236Z,11.84
2022-09-20T01:59:36.545Z,11.89
2022-09-20T02:02:31.954Z,11.94
2022-09-20T02:05:24.356Z,12.10
2022-09-20T02:08:06.856Z,12.11
2022-09-20T02:11:01.756Z,12.22
2022-09-20T02:13:31.739Z,12.14
2022-09-20T02:16:17.377Z,12.13
2022-09-20T02:18:57.874Z,12.26
2022-09-20T02:21:31.600Z,12.28
2022-09-20T02:24:06.004Z,12.25
2022-09-20T02:26:40.405Z,12.27
2022-09-20T02:29:18.373Z,12.38
2022-09-20T02:31:59.521Z,12.38
2022-09-20T02:34:47.857Z,12.43
2022-09-20T02:37:30.657Z,12.42
2022-09-20T02:40:07.383Z,12.52
2022-09-20T02:42:38.830Z,12.45
2022-09-20T02:45:11.004Z,12.40
2022-09-20T02:47:41.607Z,12.32
2022-09-20T02:50:20.984Z,12.29
2022-09-20T02:52:57.939Z,12.28
2022-09-20T02:55:35.902Z,12.38
2022-09-20T02:58:18.890Z,12.23
2022-09-20T03:00:53.930Z,12.21
2022-09-20T03:03:31.990Z,12.24
2022-09-20T03:06:07.260Z,12.30
2022-09-20T03:08:39.989Z,12.29
2022-09-20T03:11:14.505Z,12.29
2022-09-20T03:14:05.371Z,12.20
2022-09-20T03:16:36.934Z,12.09
2022-09-20T03:19:16.694Z,12.07
2022-09-20T03:21:53.285Z,12.16
2022-09-20T03:24:30.058Z,12.16
2022-09-20T03:27:00.670Z,12.18
2022-09-20T03:29:39.186Z,12.19
2022-09-20T03:32:21.695Z,12.10
2022-09-20T03:34:58.472Z,12.15
2022-09-20T03:37:42.409Z,12.08
2022-09-20T03:40:30.481Z,12.17
2022-09-20T03:43:04.056Z,12.10
2022-09-20T03:45:42.253Z,11.94
2022-09-20T03:48:24.887Z,11.99
2022-09-20T03:51:10.941Z,11.95
2022-09-20T03:53:59.957Z,11.79
2022-09-20T03:56:59.050Z,11.92
2022-09-20T03:59:37.641Z,11.85
2022-09-20T04:02:19.265Z,11.91
2022-09-20T04:04:52.091Z,11.87
2022-09-20T04:07:25.217Z,11.80
2022-09-20T04:10:03.203Z,11.54
2022-09-20T04:12:36.758Z,11.62
2022-09-20T04:15:17.548Z,11.64
2022-09-20T04:17:50.734Z,11.80
2022-09-20T04:20:21.898Z,11.84
2022-09-20T04:22:52.817Z,11.71
2022-09-20T04:25:23.684Z,11.72
2022-09-20T04:27:54.532Z,11.64
2022-09-20T04:30:27.858Z,11.53
2022-09-20T04:33:00.629Z,11.47
2022-09-20T04:35:54.890Z,11.39
2022-09-20T04:38:24.887Z,11.33
2022-09-20T04:41:30.728Z,11.53
2022-09-20T04:44:19.997Z,11.65
2022-09-20T04:47:23.185Z,11.88
2022-09-20T04:50:32.590Z,11.98
2022-09-20T04:53:24.716Z,12.10
2022-09-20T04:55:56.934Z,12.12
2022-09-20T04:58:36.950Z,12.15
2022-09-20T05:01:40.698Z,11.91
2022-09-20T05:04:41.188Z,12.07
2022-09-20T05:07:36.641Z,12.07
2022-09-20T05:10:19.161Z,12.30
2022-09-20T05:13:09.068Z,12.47
2022-09-20T05:15:43.389Z,12.71
2022-09-20T05:18:48.404Z,12.78
2022-09-20T05:21:38.769Z,12.99
2022-09-20T05:24:13.307Z,12.90
2022-09-20T05:26:52.849Z,12.74
2022-09-20T05:29:25.832Z,12.82
2022-09-20T05:32:00.415Z,12.87
2022-09-20T05:34:33.224Z,13.03
2022-09-20T05:37:07.955Z,12.83
2022-09-20T05:39:39.480Z,12.86
2022-09-20T05:42:19.348Z,12.85
2022-09-20T05:44:57.006Z,13.07
2022-09-20T05:47:36.615Z,12.93
2022-09-20T05:50:18.044Z,12.66
2022-09-20T05:52:52.858Z,12.62
2022-09-20T05:55:43.574Z,12.64
2022-09-20T05:58:26.928Z,12.81
2022-09-20T06:00:59.250Z,12.95
2022-09-20T06:03:35.181Z,12.91
2022-09-20T06:06:08.351Z,12.89
2022-09-20T06:08:58.027Z,12.99
2022-09-20T06:11:59.808Z,13.13
2022-09-20T06:14:40.335Z,13.21
2022-09-20T06:17:17.375Z,13.27
2022-09-20T06:19:47.787Z,13.29
2022-09-20T06:22:19.208Z,13.31
2022-09-20T06:24:49.469Z,13.40
2022-09-20T06:27:22.001Z,13.32
2022-09-20T06:29:54.429Z,13.29
2022-09-20T06:32:22.292Z,13.53
2022-09-20T06:34:50.113Z,13.46
2022-09-20T06:37:49.190Z,13.69
2022-09-20T06:40:50.661Z,13.33
2022-09-20T06:43:19.358Z,13.13
2022-09-20T06:45:48.628Z,13.39
2022-09-20T06:48:16.427Z,13.43
2022-09-20T06:50:45.391Z,13.48
2022-09-20T06:53:17.592Z,13.71
2022-09-20T06:55:46.109Z,13.68
2022-09-20T06:58:13.816Z,13.98
2022-09-20T07:00:41.600Z,13.91
2022-09-20T07:03:12.624Z,14.01
2022-09-20T07:05:40.684Z,13.95
2022-09-20T07:08:08.429Z,14.10
2022-09-20T07:10:36.531Z,14.08
2022-09-20T07:13:04.247Z,14.07
2022-09-20T07:15:33.479Z,14.05
2022-09-20T07:18:01.295Z,14.32
2022-09-20T07:20:30.412Z,14.25
2022-09-20T07:22:58.322Z,14.48
2022-09-20T07:25:26.077Z,14.64
2022-09-20T07:27:54.109Z,14.72
2022-09-20T07:30:21.944Z,14.82
2022-09-20T07:32:50.302Z,14.93
2022-09-20T07:35:18.209Z,15.25
2022-09-20T07:37:47.883Z,15.56
2022-09-20T07:40:16.485Z,15.65
2022-09-20T07:42:45.977Z,15.91
2022-09-20T07:45:13.712Z,16.35
2022-09-20T07:47:42.111Z,15.66
2022-09-20T07:50:11.650Z,16.00
2022-09-20T07:52:39.445Z,16.22
2022-09-20T07:55:09.676Z,16.54
2022-09-20T07:57:38.311Z,16.21
2022-09-20T08:00:07.976Z,16.13
2022-09-20T08:02:40.271Z,16.18
2022-09-20T08:05:08.718Z,16.44
2022-09-20T08:07:36.500Z,16.52
2022-09-20T08:10:04.820Z,16.59
2022-09-20T08:15:22.771Z,16.43
2022-09-20T08:17:50.599Z,16.56
2022-09-20T08:20:19.671Z,16.52
2022-09-20T08:23:06.408Z,16.48
2022-09-20T08:25:35.989Z,16.47
2022-09-20T08:28:05.584Z,16.68
2022-09-20T08:30:33.556Z,16.86
2022-09-20T08:33:02.196Z,16.85
2022-09-20T08:35:30.604Z,16.88
2022-09-20T08:39:57.083Z,17.15
2022-09-20T08:40:47.253Z,16.45
2022-09-20T08:43:22.302Z,16.72
2022-09-20T08:45:50.817Z,16.83
2022-09-20T08:48:18.977Z,16.92
2022-09-20T08:50:46.664Z,17.33
2022-09-20T08:53:20.978Z,17.49
2022-09-20T08:55:49.657Z,17.49
2022-09-20T08:58:19.353Z,17.72
2022-09-20T09:00:47.834Z,17.59
2022-09-20T09:03:17.907Z,17.29
2022-09-20T09:05:47.589Z,17.39
2022-09-20T09:08:17.090Z,17.39
2022-09-20T09:10:47.200Z,18.03
2022-09-20T09:13:21.830Z,18.30
2022-09-20T09:15:54.076Z,18.84
2022-09-20T09:18:21.803Z,18.32
2022-09-20T09:20:49.628Z,18.51
2022-09-20T09:23:25.185Z,18.58
2022-09-20T09:25:53.896Z,18.73
2022-09-20T09:28:24.965Z,18.93
2022-09-20T09:30:52.710Z,18.65
2022-09-20T09:33:26.602Z,18.17
2022-09-20T09:36:00.159Z,17.47
2022-09-20T09:38:30.565Z,17.41
2022-09-20T09:41:00.033Z,17.23
2022-09-20T09:43:32.338Z,17.31
2022-09-20T09:46:19.031Z,16.92
2022-09-20T09:48:50.115Z,17.57
2022-09-20T09:51:20.152Z,18.00
2022-09-20T09:53:49.641Z,17.88
2022-09-20T09:56:27.020Z,17.80
2022-09-20T09:59:10.550Z,18.15
2022-09-20T10:01:49.007Z,18.17
2022-09-20T10:04:19.805Z,18.22
2022-09-20T10:06:52.433Z,18.67
2022-09-20T10:09:30.301Z,18.59
2022-09-20T10:12:17.636Z,18.35
2022-09-20T10:15:01.282Z,18.42
2022-09-20T10:17:46.521Z,18.85
2022-09-20T10:20:31.089Z,18.41
2022-09-20T10:23:39.378Z,18.57
2022-09-20T10:26:00.783Z,17.64
2022-09-20T10:28:48.294Z,17.66
2022-09-20T10:31:31.127Z,18.55
2022-09-20T10:34:10.710Z,18.71
2022-09-20T10:36:44.415Z,18.63
2022-09-20T10:39:15.058Z,18.74
2022-09-20T10:42:06.857Z,19.19
2022-09-20T10:44:54.142Z,19.06
2022-09-20T10:47:28.806Z,19.24
2022-09-20T10:50:01.694Z,19.30
2022-09-20T10:52:38.472Z,19.34
2022-09-20T10:55:28.101Z,19.28
2022-09-20T10:58:19.083Z,18.92
2022-09-20T11:00:52.714Z,18.85
2022-09-20T11:03:32.901Z,18.63
2022-09-20T11:06:10.835Z,18.48
2022-09-20T11:08:39.254Z,18.84
2022-09-20T11:11:10.360Z,18.83
2022-09-20T11:13:42.017Z,18.97
2022-09-20T11:16:14.679Z,19.29
2022-09-20T11:18:47.644Z,19.63
2022-09-20T11:21:20.050Z,19.65
2022-09-20T11:23:52.626Z,19.48
2022-09-20T11:26:26.698Z,20.01
2022-09-20T11:28:56.151Z,19.42
2022-09-20T11:31:27.345Z,19.02
2022-09-20T11:33:59.839Z,19.12
2022-09-20T11:36:33.299Z,19.04
2022-09-20T11:39:05.165Z,19.33
2022-09-20T11:41:33.373Z,19.49
2022-09-20T11:44:06.911Z,19.34
2022-09-20T11:46:36.967Z,19.32
2022-09-20T11:49:12.434Z,19.26
2022-09-20T11:52:21.852Z,19.47
2022-09-20T11:55:11.989Z,18.35
2022-09-20T11:57:40.120Z,18.47
2022-09-20T12:00:10.142Z,18.83
2022-09-20T12:02:46.197Z,19.70
2022-09-20T12:05:28.264Z,19.58
2022-09-20T12:07:57.493Z,19.85
2022-09-20T12:10:27.566Z,20.20
2022-09-20T12:12:58.464Z,20.32
2022-09-20T12:15:28.653Z,19.81
2022-09-20T12:18:37.857Z,19.84
2022-09-20T12:21:16.357Z,21.45
2022-09-20T12:24:23.565Z,22.18
2022-09-20T12:26:55.832Z,23.54
2022-09-20T12:30:15.001Z,25.07
2022-09-20T12:32:48.420Z,26.38
2022-09-20T12:35:55.847Z,25.14
2022-09-20T12:38:31.219Z,21.92
2022-09-20T12:41:03.871Z,20.94
2022-09-20T12:43:33.230Z,21.53
2022-09-20T12:46:06.333Z,21.47
2022-09-20T12:48:38.406Z,21.35
2022-09-20T12:51:21.585Z,20.74
2022-09-20T12:54:08.066Z,19.99
2022-09-20T12:56:37.543Z,19.58
2022-09-20T12:59:07.391Z,19.49
2022-09-20T13:01:40.441Z,19.27
2022-09-20T13:04:55.212Z,18.95
2022-09-20T13:07:43.781Z,18.81
2022-09-20T13:10:29.095Z,18.80
2022-09-20T13:13:01.203Z,18.86
2022-09-20T13:15:29.123Z,19.04
2022-09-20T13:17:59.064Z,19.31
2022-09-20T13:20:29.900Z,19.59
2022-09-20T13:23:00.285Z,19.16
2022-09-20T13:25:29.822Z,19.14
2022-09-20T13:28:04.207Z,20.77
2022-09-20T13:30:32.863Z,21.00
2022-09-20T13:33:17.305Z,22.57
2022-09-20T13:35:47.012Z,24.47
2022-09-20T13:38:16.051Z,24.90
2022-09-20T13:40:47.433Z,25.86
2022-09-20T13:43:25.280Z,24.18
2022-09-20T13:45:55.040Z,26.03
2022-09-20T13:48:25.593Z,25.01
2022-09-20T13:50:53.938Z,23.73
2022-09-20T13:53:40.066Z,22.39
2022-09-20T13:56:11.767Z,22.69
2022-09-20T13:58:39.613Z,22.65
2022-09-20T14:01:09.483Z,22.40
2022-09-20T14:03:37.538Z,22.43
2022-09-20T14:06:08.401Z,22.17
2022-09-20T14:08:38.991Z,22.08
2022-09-20T14:11:08.554Z,21.85
2022-09-20T14:13:40.097Z,22.81
2022-09-20T14:16:08.267Z,25.64
2022-09-20T14:18:36.545Z,25.89
2022-09-20T14:21:06.861Z,26.14
2022-09-20T14:23:34.707Z,26.48
2022-09-20T14:26:10.243Z,27.13
2022-09-20T14:28:39.345Z,26.21
2022-09-20T14:31:08.861Z,25.77
2022-09-20T14:33:42.127Z,25.43
2022-09-20T14:36:14.551Z,24.02
2022-09-20T14:38:44.464Z,25.71
2022-09-20T14:41:12.768Z,24.72
2022-09-20T14:43:42.232Z,23.11
2022-09-20T14:46:18.642Z,22.19
2022-09-20T14:48:46.466Z,21.61
2022-09-20T14:51:25.420Z,21.75
2022-09-20T14:53:55.071Z,21.94
2022-09-20T14:56:34.698Z,21.40
2022-09-20T14:59:19.757Z,21.45
2022-09-20T15:01:57.068Z,20.76
2022-09-20T15:04:26.852Z,20.48
2022-09-20T15:06:55.316Z,20.76
2022-09-20T15:09:23.799Z,20.62
2022-09-20T15:12:07.299Z,20.22
2022-09-20T15:14:38.075Z,20.27
2022-09-20T15:17:06.288Z,20.08
2022-09-20T15:19:34.460Z,19.86
2022-09-20T15:22:02.272Z,19.60
2022-09-20T15:24:29.999Z,19.53
2022-09-20T15:26:57.900Z,19.15
2022-09-20T15:29:26.014Z,18.99
2022-09-20T15:31:55.236Z,19.24
2022-09-20T15:34:23.165Z,19.30
2022-09-20T15:36:51.640Z,19.04
2022-09-20T15:39:21.008Z,18.89
2022-09-20T15:41:49.433Z,18.37
2022-09-20T15:44:17.727Z,18.26
2022-09-20T15:46:45.493Z,18.22
2022-09-20T15:49:14.564Z,18.39
2022-09-20T15:51:42.303Z,18.34
2022-09-20T15:54:15.837Z,18.24
2022-09-20T15:56:43.603Z,18.26
2022-09-20T15:59:13.334Z,18.18
2022-09-20T16:01:42.310Z,18.24
2022-09-20T16:04:11.110Z,18.32
2022-09-20T16:06:41.330Z,18.36
2022-09-20T16:09:09.497Z,18.38
2022-09-20T16:11:38.694Z,18.25
2022-09-20T16:14:06.832Z,18.25
2022-09-20T16:16:39.929Z,18.24
2022-09-20T16:19:23.625Z,18.30
2022-09-20T16:21:59.118Z,18.47
2022-09-20T16:24:28.586Z,18.00
2022-09-20T16:26:56.655Z,17.76
2022-09-20T16:29:25.775Z,17.52
2022-09-20T16:31:54.628Z,17.52
2022-09-20T16:34:23.901Z,17.80
2022-09-20T16:36:55.614Z,18.04
2022-09-20T16:39:26.151Z,17.68
2022-09-20T16:41:53.951Z,17.43
2022-09-20T16:44:21.653Z,17.30
2022-09-20T16:46:49.464Z,17.49
2022-09-20T16:49:17.648Z,17.14
2022-09-20T16:51:46.286Z,16.89
2022-09-20T16:54:17.102Z,16.76
2022-09-20T16:56:46.602Z,16.71
2022-09-20T16:59:15.596Z,16.66
2022-09-20T17:01:44.348Z,16.35
2022-09-20T17:04:13.984Z,16.26
2022-09-20T17:06:43.198Z,16.25
2022-09-20T17:09:11.461Z,16.04
2022-09-20T17:11:43.622Z,16.06
2022-09-20T17:14:11.390Z,15.97
2022-09-20T17:16:40.777Z,15.93
2022-09-20T17:19:10.975Z,15.84
2022-09-20T17:21:42.359Z,15.77
2022-09-20T17:24:10.450Z,15.69
2022-09-20T17:26:40.855Z,15.83
2022-09-20T17:29:10.650Z,15.75
2022-09-20T17:31:41.630Z,15.65
2022-09-20T17:34:10.960Z,15.51
2022-09-20T17:36:40.428Z,15.56
2022-09-20T17:39:09.981Z,15.72
2022-09-20T17:41:38.364Z,15.79
2022-09-20T17:44:08.269Z,15.91
2022-09-20T17:46:38.035Z,15.69
2022-09-20T17:49:07.594Z,15.54
2022-09-20T17:51:38.197Z,15.66
2022-09-20T17:54:06.209Z,15.69
2022-09-20T17:56:35.652Z,15.50
2022-09-20T17:59:04.862Z,15.47
2022-09-20T18:01:35.522Z,15.33
2022-09-20T18:04:04.490Z,15.26
2022-09-20T18:06:34.277Z,15.20
2022-09-20T18:09:04.534Z,15.24
2022-09-20T18:11:33.802Z,15.25
2022-09-20T18:14:02.053Z,15.24
2022-09-20T18:16:30.867Z,15.06
2022-09-20T18:19:00.248Z,15.03
2022-09-20T18:21:30.052Z,14.98
2022-09-20T18:23:58.977Z,14.96
2022-09-20T18:26:29.995Z,14.78
2022-09-20T18:29:00.201Z,14.64
2022-09-20T18:31:32.367Z,14.85
2022-09-20T18:34:01.946Z,14.78
2022-09-20T18:36:30.907Z,14.60
2022-09-20T18:38:59.500Z,14.45
2022-09-20T18:41:29.046Z,14.28
2022-09-20T18:43:57.135Z,14.14
2022-09-20T18:46:26.858Z,14.15
2022-09-20T18:48:55.827Z,14.10
2022-09-20T18:51:25.925Z,14.03
2022-09-20T18:53:53.861Z,14.00
2022-09-20T18:56:24.043Z,14.06
2022-09-20T18:58:52.848Z,14.03
2022-09-20T19:01:42.693Z,14.00
2022-09-20T19:04:24.362Z,14.13
2022-09-20T19:06:59.101Z,14.00
2022-09-20T19:09:32.528Z,13.94
2022-09-20T19:12:02.783Z,13.85
2022-09-20T19:14:48.317Z,13.84
2022-09-20T19:17:20.278Z,14.02
2022-09-20T19:19:51.588Z,14.17
2022-09-20T19:22:29.629Z,14.17
2022-09-20T19:25:12.409Z,14.05
2022-09-20T19:27:41.208Z,13.98
2022-09-20T19:30:13.101Z,13.94
2022-09-20T19:32:41.322Z,14.02
2022-09-20T19:35:17.234Z,13.91
2022-09-20T19:37:58.079Z,13.81
2022-09-20T19:40:31.238Z,13.91
2022-09-20T19:43:14.420Z,13.84
2022-09-20T19:45:49.550Z,13.93
2022-09-20T19:48:20.401Z,14.00
2022-09-20T19:50:52.138Z,13.97
2022-09-20T19:53:24.117Z,13.87
2022-09-20T19:55:55.173Z,13.89
2022-09-20T19:58:23.770Z,13.91
2022-09-20T20:00:52.579Z,13.93
2022-09-20T20:03:23.512Z,13.86
2022-09-20T20:05:56.092Z,13.89
2022-09-20T20:08:32.849Z,13.89
2022-09-20T20:11:06.175Z,13.69
2022-09-20T20:13:54.667Z,13.86
2022-09-20T20:16:28.169Z,13.91
2022-09-20T20:19:07.045Z,13.85
2022-09-20T20:21:41.190Z,13.80
2022-09-20T20:24:20.555Z,13.65
2022-09-20T20:26:48.281Z,13.66
2022-09-20T20:29:16.013Z,13.46
2022-09-20T20:31:43.790Z,13.48
2022-09-20T20:34:16.012Z,13.47
2022-09-20T20:36:44.294Z,13.37
2022-09-20T20:39:13.368Z,13.34
2022-09-20T20:41:41.536Z,13.43
2022-09-20T20:44:09.712Z,13.56
2022-09-20T20:46:38.060Z,13.48
2022-09-20T20:49:06.029Z,13.23
2022-09-20T20:51:33.860Z,13.25
2022-09-20T20:54:01.598Z,13.15
2022-09-20T20:56:31.282Z,13.15
2022-09-20T20:59:00.610Z,13.04
2022-09-20T21:01:30.508Z,12.98
2022-09-20T21:03:59.566Z,13.11
2022-09-20T21:06:28.599Z,13.06
2022-09-20T21:08:56.661Z,12.87
2022-09-20T21:11:25.957Z,12.84
2022-09-20T21:13:57.073Z,12.83
2022-09-20T21:16:26.163Z,12.75
2022-09-20T21:18:54.008Z,12.70
2022-09-20T21:21:23.472Z,12.82
2022-09-20T21:23:52.787Z,12.68
2022-09-20T21:26:21.278Z,12.61
2022-09-20T21:28:52.070Z,12.45
2022-09-20T21:31:23.095Z,12.37
2022-09-20T21:33:51.088Z,12.37
2022-09-20T21:36:20.407Z,12.31
2022-09-20T21:38:48.292Z,12.30
2022-09-20T21:41:17.649Z,12.50
2022-09-20T21:43:46.383Z,12.41
2022-09-20T21:46:14.882Z,12.34
2022-09-20T21:48:44.184Z,12.04
2022-09-20T21:51:13.741Z,11.94
2022-09-20T21:53:42.249Z,12.04
2022-09-20T21:56:11.401Z,11.90
2022-09-20T21:58:39.983Z,11.83
2022-09-20T22:01:11.556Z,11.81
2022-09-20T22:03:40.784Z,11.67
2022-09-20T22:06:12.049Z,11.64
2022-09-20T22:08:41.352Z,11.59
2022-09-20T22:11:14.901Z,11.60
2022-09-20T22:13:43.536Z,11.52
2022-09-20T22:16:12.856Z,11.65
2022-09-20T22:18:42.022Z,11.60
2022-09-20T22:21:13.018Z,11.60
2022-09-20T22:23:41.005Z,11.48
2022-09-20T22:26:10.479Z,11.44
2022-09-20T22:28:38.725Z,11.64
2022-09-20T22:31:08.473Z,11.68
2022-09-20T22:33:36.904Z,11.42
2022-09-20T22:36:08.268Z,11.31
2022-09-20T22:38:37.483Z,11.26
2022-09-20T22:41:06.088Z,11.24
2022-09-20T22:43:34.363Z,11.12
2022-09-20T22:46:06.089Z,11.15
2022-09-20T22:48:34.512Z,11.26
2022-09-20T22:51:02.676Z,11.24
2022-09-20T22:53:31.365Z,11.16
2022-09-20T22:56:08.480Z,11.13
2022-09-20T22:58:37.570Z,11.03
2022-09-20T23:01:07.614Z,10.99
2022-09-20T23:03:35.828Z,10.87
2022-09-20T23:06:04.124Z,10.87
2022-09-20T23:08:33.186Z,10.81
2022-09-20T23:11:03.686Z,10.81
2022-09-20T23:13:33.259Z,10.94
2022-09-20T23:16:00.988Z,10.85
2022-09-20T23:18:28.700Z,10.91
2022-09-20T23:21:00.337Z,10.87
2022-09-20T23:23:28.108Z,10.76
2022-09-20T23:25:56.137Z,10.74
2022-09-20T23:28:27.270Z,10.77
2022-09-20T23:31:04.528Z,10.82
2022-09-20T23:33:32.780Z,10.75
2022-09-20T23:36:00.801Z,10.54
2022-09-20T23:38:28.581Z,10.57
2022-09-20T23:40:56.472Z,10.48
2022-09-20T23:43:24.360Z,10.42
2022-09-20T23:45:52.099Z,10.47
2022-09-20T23:48:21.204Z,10.50
2022-09-20T23:50:48.965Z,10.35
2022-09-20T23:53:16.745Z,10.37
2022-09-20T23:55:44.477Z,10.55
2022-09-20T23:58:12.465Z,10.52
